Time;durP1;ratioP1;P1;durP2;ratioP2;P2;SDS_P1;SDS_P2;PMS_P1;PMS_P2;Temp;Humidity;BMP_temperature;BMP_pressure;BME280_temperature;BME280_humidity;BME280_pressure;Samples;Min_cycle;Max_cycle;Signal;HPM_P1;HPM_P2
2023/04/15 14:14:14;;;;;;;0.30;0.30;;;;;;;;;;5090697;28;20792;-77
2023/04/15 14:16:40;;;;;;;1.05;0.30;;;;;;;;;;5091311;28;20028;-79
2023/04/15 14:19:05;;;;;;;1.13;0.32;;;;;;;;;;5091351;28;20507;-79
2023/04/15 14:21:31;;;;;;;1.83;0.30;;;;;;;;;;5099130;28;20498;-79
2023/04/15 14:23:57;;;;;;;2.95;0.40;;;;;;;;;;5099260;28;20383;-80
2023/04/15 14:26:22;;;;;;;1.52;0.20;;;;;;;;;;5094989;28;20384;-78
2023/04/15 14:28:48;;;;;;;0.75;0.30;;;;;;;;;;5071122;28;20093;-80
2023/04/15 14:31:14;;;;;;;1.10;0.55;;;;;;;;;;5067541;28;20039;-79
2023/04/15 14:33:40;;;;;;;0.50;0.45;;;;;;;;;;5089765;28;20020;-79
2023/04/15 14:36:06;;;;;;;0.98;0.40;;;;;;;;;;5086180;28;20038;-79
2023/04/15 14:38:37;;;;;;;1.70;0.50;;;;;;;;;;5072548;28;20115;-78
2023/04/15 14:41:09;;;;;;;0.88;0.35;;;;;;;;;;5087664;28;20036;-80
2023/04/15 14:43:35;;;;;;;1.27;0.22;;;;;;;;;;5101281;28;20047;-79
2023/04/15 14:46:00;;;;;;;1.50;0.25;;;;;;;;;;5090304;28;20060;-80
2023/04/15 14:48:26;;;;;;;0.68;0.40;;;;;;;;;;5099740;28;20032;-80
2023/04/15 14:50:52;;;;;;;0.52;0.40;;;;;;;;;;5070859;28;20020;-78
2023/04/15 14:53:17;;;;;;;0.75;0.43;;;;;;;;;;5081013;28;20055;-79
2023/04/15 14:55:44;;;;;;;0.75;0.43;;;;;;;;;;5076130;28;20024;-80
2023/04/15 14:58:09;;;;;;;0.17;0.17;;;;;;;;;;5095093;28;20020;-79
2023/04/15 15:00:39;;;;;;;0.90;0.28;;;;;;;;;;5088048;28;20058;-78
2023/04/15 15:03:11;;;;;;;0.52;0.30;;;;;;;;;;5094745;28;20344;-79
2023/04/15 15:05:37;;;;;;;1.50;0.35;;;;;;;;;;5087974;28;20024;-78
2023/04/15 15:08:02;;;;;;;1.65;1.35;;;;;;;;;;5085571;28;20036;-78
2023/04/15 15:10:28;;;;;;;0.88;0.40;;;;;;;;;;5092238;28;20024;-77
2023/04/15 15:12:53;;;;;;;0.63;0.30;;;;;;;;;;5091698;28;20121;-78
2023/04/15 15:15:19;;;;;;;0.60;0.40;;;;;;;;;;5100465;28;20832;-80
2023/04/15 15:17:44;;;;;;;1.92;1.02;;;;;;;;;;5094482;28;20020;-80
2023/04/15 15:20:10;;;;;;;5.03;0.70;;;;;;;;;;5094629;28;20024;-78
2023/04/15 15:22:35;;;;;;;2.33;0.45;;;;;;;;;;5092806;28;20032;-80
2023/04/15 15:25:01;;;;;;;1.05;0.95;;;;;;;;;;5081522;28;20071;-79
2023/04/15 15:27:26;;;;;;;1.15;0.32;;;;;;;;;;5077354;28;20021;-79
2023/04/15 15:29:51;;;;;;;0.60;0.50;;;;;;;;;;5058893;28;20502;-80
2023/04/15 15:32:17;;;;;;;1.45;0.65;;;;;;;;;;5075185;28;20028;-78
2023/04/15 15:34:42;;;;;;;0.45;0.30;;;;;;;;;;5076171;28;20522;-81
2023/04/15 15:37:08;;;;;;;1.50;0.52;;;;;;;;;;5081037;28;20099;-80
2023/04/15 15:39:34;;;;;;;1.42;0.65;;;;;;;;;;5082625;28;20430;-80
2023/04/15 15:41:59;;;;;;;1.80;1.00;;;;;;;;;;5083750;28;20103;-80
2023/04/15 15:44:25;;;;;;;1.05;0.50;;;;;;;;;;5055510;28;20032;-81
2023/04/15 15:46:50;;;;;;;0.50;0.20;;;;;;;;;;5059544;28;20032;-80
2023/04/15 15:49:16;;;;;;;2.30;0.60;;;;;;;;;;5082925;28;20408;-78
2023/04/15 15:51:41;;;;;;;1.20;0.75;;;;;;;;;;5083057;28;20055;-78
2023/04/15 15:54:07;;;;;;;0.60;0.40;;;;;;;;;;5081047;28;20544;-79
2023/04/15 15:56:33;;;;;;;1.65;0.68;;;;;;;;;;5070990;28;20028;-80
2023/04/15 15:58:59;;;;;;;0.73;0.57;;;;;;;;;;5074009;28;20040;-79
2023/04/15 16:01:24;;;;;;;1.17;0.40;;;;;;;;;;5080770;28;20028;-78
2023/04/15 16:03:50;;;;;;;0.57;0.57;;;;;;;;;;5080501;28;20555;-80
2023/04/15 16:06:15;;;;;;;0.73;0.40;;;;;;;;;;5072873;28;20027;-78
2023/04/15 16:08:40;;;;;;;1.00;0.73;;;;;;;;;;5081852;28;20060;-78
2023/04/15 16:11:06;;;;;;;0.43;0.43;;;;;;;;;;5079647;28;20468;-79
2023/04/15 16:13:31;;;;;;;0.50;0.40;;;;;;;;;;5078622;28;20080;-78
2023/04/15 16:15:57;;;;;;;0.30;0.30;;;;;;;;;;5082636;28;20032;-80
2023/04/15 16:18:22;;;;;;;0.47;0.30;;;;;;;;;;5071829;28;20028;-79
2023/04/15 16:20:48;;;;;;;0.68;0.40;;;;;;;;;;5085831;28;20027;-78
2023/04/15 16:23:15;;;;;;;0.77;0.30;;;;;;;;;;5062203;28;20012;-81
2023/04/15 16:25:41;;;;;;;1.15;0.63;;;;;;;;;;5077732;28;20029;-79
2023/04/15 16:28:07;;;;;;;2.90;0.55;;;;;;;;;;5085401;28;20096;-79
2023/04/15 16:30:40;;;;;;;0.52;0.45;;;;;;;;;;5080728;28;20101;-79
2023/04/15 16:33:06;;;;;;;1.73;0.50;;;;;;;;;;5076586;28;20028;-80
2023/04/15 16:35:31;;;;;;;3.05;0.70;;;;;;;;;;5079122;28;20440;-79
2023/04/15 16:37:57;;;;;;;1.13;0.30;;;;;;;;;;5080449;28;20503;-80
2023/04/15 16:40:23;;;;;;;0.38;0.22;;;;;;;;;;5062497;28;20380;-81
2023/04/15 16:42:50;;;;;;;1.80;0.75;;;;;;;;;;5079235;28;20038;-84
2023/04/15 16:45:15;;;;;;;4.95;0.50;;;;;;;;;;5079876;28;20042;-81
2023/04/15 16:47:41;;;;;;;1.33;0.85;;;;;;;;;;5077399;28;20020;-82
2023/04/15 16:50:07;;;;;;;1.23;0.80;;;;;;;;;;5079789;28;20040;-80
2023/04/15 16:52:32;;;;;;;3.55;1.10;;;;;;;;;;5085120;28;20028;-81
2023/04/15 16:54:58;;;;;;;1.08;0.55;;;;;;;;;;5058725;28;20421;-80
2023/04/15 16:57:23;;;;;;;0.80;0.40;;;;;;;;;;5061072;28;20040;-80
2023/04/15 16:59:49;;;;;;;0.20;0.20;;;;;;;;;;5055161;28;20024;-78
2023/04/15 17:02:14;;;;;;;0.30;0.30;;;;;;;;;;5062365;28;20029;-80
2023/04/15 17:04:40;;;;;;;0.77;0.32;;;;;;;;;;5076289;28;20024;-79
2023/04/15 17:07:07;;;;;;;0.25;0.25;;;;;;;;;;5080602;28;20070;-80
2023/04/15 17:09:33;;;;;;;0.25;0.25;;;;;;;;;;5064162;28;20024;-80
2023/04/15 17:11:58;;;;;;;0.47;0.43;;;;;;;;;;5060972;28;20128;-80
2023/04/15 17:14:24;;;;;;;0.20;0.20;;;;;;;;;;5057530;28;20468;-83
2023/04/15 17:16:49;;;;;;;0.10;0.10;;;;;;;;;;5077089;28;20031;-79
2023/04/15 17:19:15;;;;;;;0.70;0.55;;;;;;;;;;5064446;28;20402;-80
2023/04/15 17:21:40;;;;;;;3.03;0.93;;;;;;;;;;5079915;28;20081;-82
2023/04/15 17:24:06;;;;;;;0.85;0.50;;;;;;;;;;5065973;28;20117;-80
2023/04/15 17:26:31;;;;;;;0.55;0.40;;;;;;;;;;5081691;28;20467;-83
2023/04/15 17:28:57;;;;;;;3.20;0.57;;;;;;;;;;5059053;28;20032;-81
2023/04/15 17:31:22;;;;;;;1.63;0.90;;;;;;;;;;5074382;28;20028;-82
2023/04/15 17:33:48;;;;;;;4.50;1.13;;;;;;;;;;5078426;28;20102;-83
2023/04/15 17:36:13;;;;;;;0.68;0.60;;;;;;;;;;5085908;28;20057;-84
2023/04/15 17:38:39;;;;;;;1.77;1.20;;;;;;;;;;5066312;28;20033;-81
2023/04/15 17:41:06;;;;;;;2.88;0.65;;;;;;;;;;5080473;28;20036;-78
2023/04/15 17:43:32;;;;;;;0.60;0.47;;;;;;;;;;5077567;28;20530;-81
2023/04/15 17:45:57;;;;;;;2.70;0.90;;;;;;;;;;5069414;28;20020;-79
2023/04/15 17:48:24;;;;;;;0.95;0.80;;;;;;;;;;5065090;28;20028;-79
2023/04/15 17:50:50;;;;;;;1.70;1.08;;;;;;;;;;5060410;28;20058;-80
2023/04/15 17:53:15;;;;;;;1.85;1.15;;;;;;;;;;5057460;28;20071;-79
2023/04/15 17:55:40;;;;;;;1.17;0.85;;;;;;;;;;5072411;28;20162;-80
2023/04/15 17:58:06;;;;;;;0.93;0.65;;;;;;;;;;5082152;28;20073;-83
2023/04/15 18:00:31;;;;;;;1.23;0.75;;;;;;;;;;5061043;28;20020;-80
2023/04/15 18:02:57;;;;;;;0.85;0.68;;;;;;;;;;5081126;28;20020;-81
2023/04/15 18:05:22;;;;;;;1.95;0.88;;;;;;;;;;5084096;28;20032;-80
2023/04/15 18:07:50;;;;;;;1.33;0.95;;;;;;;;;;5076138;28;20024;-78
2023/04/15 18:10:16;;;;;;;1.30;0.98;;;;;;;;;;5062594;28;20115;-84
2023/04/15 18:12:42;;;;;;;1.42;1.00;;;;;;;;;;5079562;28;20568;-82
2023/04/15 18:15:08;;;;;;;0.50;0.40;;;;;;;;;;5074860;28;20032;-77
2023/04/15 18:17:34;;;;;;;0.73;0.47;;;;;;;;;;5086393;28;20059;-82
2023/04/15 18:19:59;;;;;;;1.23;0.60;;;;;;;;;;5065529;28;20059;-84
2023/04/15 18:22:27;;;;;;;0.50;0.50;;;;;;;;;;5085487;28;20026;-82
2023/04/15 18:24:53;;;;;;;0.77;0.73;;;;;;;;;;5062077;28;20024;-81
2023/04/15 18:27:19;;;;;;;1.05;0.80;;;;;;;;;;5064793;28;20163;-83
2023/04/15 18:29:44;;;;;;;2.70;1.00;;;;;;;;;;5082257;28;20102;-84
2023/04/15 18:32:10;;;;;;;0.98;0.90;;;;;;;;;;5084253;28;20157;-83
2023/04/15 18:34:36;;;;;;;0.30;0.30;;;;;;;;;;5085286;28;20111;-81
2023/04/15 18:37:03;;;;;;;0.40;0.40;;;;;;;;;;5062279;28;20024;-83
2023/04/15 18:39:29;;;;;;;1.80;0.90;;;;;;;;;;5081032;28;20376;-83
2023/04/15 18:41:56;;;;;;;1.02;0.47;;;;;;;;;;5080384;28;20023;-84
2023/04/15 18:44:22;;;;;;;0.82;0.52;;;;;;;;;;5068817;28;20051;-82
2023/04/15 18:46:48;;;;;;;0.75;0.50;;;;;;;;;;5055832;28;20389;-83
2023/04/15 18:49:13;;;;;;;0.20;0.20;;;;;;;;;;5074931;28;20028;-81
2023/04/15 18:51:38;;;;;;;1.00;0.43;;;;;;;;;;5056779;28;20025;-80
2023/04/15 18:54:04;;;;;;;1.98;0.93;;;;;;;;;;5076484;28;20039;-79
2023/04/15 18:56:30;;;;;;;0.77;0.60;;;;;;;;;;5072162;28;20682;-79
2023/04/15 18:58:56;;;;;;;0.30;0.30;;;;;;;;;;5076244;28;20036;-81
2023/04/15 19:01:22;;;;;;;1.52;0.75;;;;;;;;;;5072015;28;20035;-78
2023/04/15 19:03:47;;;;;;;0.93;0.60;;;;;;;;;;5082398;28;20020;-80
2023/04/15 19:06:13;;;;;;;0.75;0.30;;;;;;;;;;5075704;28;20366;-81
2023/04/15 19:08:38;;;;;;;1.55;0.88;;;;;;;;;;5079573;28;20491;-79
2023/04/15 19:11:03;;;;;;;0.40;0.40;;;;;;;;;;5077579;28;20033;-80
2023/04/15 19:13:29;;;;;;;0.80;0.50;;;;;;;;;;5084539;28;20044;-80
2023/04/15 19:15:55;;;;;;;0.30;0.30;;;;;;;;;;5060173;28;20084;-80
2023/04/15 19:18:20;;;;;;;1.45;0.28;;;;;;;;;;5060188;28;20353;-79
2023/04/15 19:20:46;;;;;;;0.68;0.35;;;;;;;;;;5057121;28;20024;-81
2023/04/15 19:23:12;;;;;;;0.35;0.35;;;;;;;;;;5085320;28;20020;-82
2023/04/15 19:25:37;;;;;;;0.40;0.40;;;;;;;;;;5056053;28;20025;-83
2023/04/15 19:28:03;;;;;;;0.35;0.35;;;;;;;;;;5090827;28;20059;-82
2023/04/15 19:30:31;;;;;;;0.82;0.30;;;;;;;;;;5082562;28;20027;-83
2023/04/15 19:32:56;;;;;;;0.75;0.68;;;;;;;;;;5082408;28;20029;-82
2023/04/15 19:35:22;;;;;;;1.10;0.70;;;;;;;;;;5079752;28;20031;-80
2023/04/15 19:37:47;;;;;;;0.40;0.40;;;;;;;;;;5068087;28;20148;-79
2023/04/15 19:40:13;;;;;;;0.80;0.40;;;;;;;;;;5075619;28;20028;-79
2023/04/15 19:42:38;;;;;;;1.13;0.52;;;;;;;;;;5059412;28;20031;-79
2023/04/15 19:45:04;;;;;;;1.05;0.75;;;;;;;;;;5069423;28;20042;-79
2023/04/15 19:47:30;;;;;;;0.35;0.35;;;;;;;;;;5065631;28;20492;-81
2023/04/15 19:49:55;;;;;;;1.27;0.70;;;;;;;;;;5061912;28;20028;-83
2023/04/15 19:52:21;;;;;;;0.65;0.55;;;;;;;;;;5085461;28;20467;-83
2023/04/15 19:54:46;;;;;;;2.08;1.00;;;;;;;;;;5081548;28;20536;-83
2023/04/15 19:57:12;;;;;;;1.17;0.98;;;;;;;;;;5080690;28;20081;-83
2023/04/15 19:59:37;;;;;;;1.52;0.77;;;;;;;;;;5058353;28;20028;-81
2023/04/15 20:02:02;;;;;;;1.65;1.10;;;;;;;;;;5090337;28;20832;-82
2023/04/15 20:04:28;;;;;;;2.95;2.13;;;;;;;;;;5086800;28;20049;-82
2023/04/15 20:06:54;;;;;;;2.88;1.55;;;;;;;;;;5057306;28;20047;-81
2023/04/15 20:09:20;;;;;;;3.47;2.58;;;;;;;;;;5064471;28;20102;-81
2023/04/15 20:11:45;;;;;;;3.00;1.58;;;;;;;;;;5080841;28;20057;-83
2023/04/15 20:14:11;;;;;;;3.05;1.55;;;;;;;;;;5083707;28;20078;-81
2023/04/15 20:16:37;;;;;;;7.15;1.83;;;;;;;;;;5080267;28;20516;-83
2023/04/15 20:19:07;;;;;;;2.30;1.42;;;;;;;;;;5064658;28;20048;-84
2023/04/15 20:21:34;;;;;;;3.75;1.10;;;;;;;;;;5057474;28;20028;-86
2023/04/15 20:23:59;;;;;;;3.10;1.85;;;;;;;;;;5086291;28;20024;-83
2023/04/15 20:26:25;;;;;;;3.00;1.15;;;;;;;;;;5077194;28;20030;-84
2023/04/15 20:28:50;;;;;;;0.85;0.80;;;;;;;;;;5085102;28;20023;-84
2023/04/15 20:31:16;;;;;;;0.90;0.70;;;;;;;;;;5082035;28;20027;-80
2023/04/15 20:33:41;;;;;;;0.55;0.52;;;;;;;;;;5084423;28;20032;-81
2023/04/15 20:36:06;;;;;;;0.68;0.60;;;;;;;;;;5080967;28;20039;-81
2023/04/15 20:38:32;;;;;;;1.67;0.73;;;;;;;;;;5086328;28;20032;-81
2023/04/15 20:40:57;;;;;;;0.75;0.63;;;;;;;;;;5073837;28;20476;-81
2023/04/15 20:43:24;;;;;;;4.70;1.58;;;;;;;;;;5067338;28;20059;-82
2023/04/15 20:45:49;;;;;;;2.00;0.95;;;;;;;;;;5080456;28;20035;-81
2023/04/15 20:48:15;;;;;;;1.27;0.60;;;;;;;;;;5068598;28;20025;-81
2023/04/15 20:50:40;;;;;;;0.73;0.50;;;;;;;;;;5066401;28;20020;-83
2023/04/15 20:53:06;;;;;;;1.25;0.88;;;;;;;;;;5080587;28;20031;-82
2023/04/15 20:55:31;;;;;;;1.48;0.70;;;;;;;;;;5079525;28;20103;-83
2023/04/15 20:57:57;;;;;;;0.82;0.52;;;;;;;;;;5069973;28;20031;-83
2023/04/15 21:00:23;;;;;;;0.65;0.40;;;;;;;;;;5063770;28;20024;-82
2023/04/15 21:02:48;;;;;;;0.70;0.52;;;;;;;;;;5087558;28;20027;-82
2023/04/15 21:05:14;;;;;;;1.85;1.00;;;;;;;;;;5088731;28;20035;-83
2023/04/15 21:07:40;;;;;;;0.77;0.63;;;;;;;;;;5066378;28;20023;-81
2023/04/15 21:10:05;;;;;;;1.42;1.13;;;;;;;;;;5079731;28;20040;-82
2023/04/15 21:12:31;;;;;;;2.13;1.70;;;;;;;;;;5062717;28;20044;-83
2023/04/15 21:14:56;;;;;;;1.08;0.98;;;;;;;;;;5061861;28;20391;-83
2023/04/15 21:17:22;;;;;;;1.00;0.68;;;;;;;;;;5078864;28;20036;-81
2023/04/15 21:19:47;;;;;;;1.55;0.80;;;;;;;;;;5082261;28;20039;-83
2023/04/15 21:22:13;;;;;;;0.68;0.55;;;;;;;;;;5081378;28;20070;-82
2023/04/15 21:24:38;;;;;;;0.32;0.32;;;;;;;;;;5082645;28;20168;-83
2023/04/15 21:27:04;;;;;;;0.65;0.47;;;;;;;;;;5061695;28;20036;-84
2023/04/15 21:29:29;;;;;;;0.73;0.73;;;;;;;;;;5080989;28;20036;-84
2023/04/15 21:31:54;;;;;;;0.17;0.17;;;;;;;;;;5086392;28;20024;-85
2023/04/15 21:34:20;;;;;;;1.98;0.45;;;;;;;;;;5081871;28;20044;-83
2023/04/15 21:36:45;;;;;;;0.75;0.68;;;;;;;;;;5083542;28;20024;-84
2023/04/15 21:39:11;;;;;;;0.30;0.30;;;;;;;;;;5059474;28;20058;-84
2023/04/15 21:41:36;;;;;;;2.28;0.38;;;;;;;;;;5059323;28;20024;-83
2023/04/15 21:44:02;;;;;;;1.10;0.50;;;;;;;;;;5080050;28;20024;-83
2023/04/15 21:46:28;;;;;;;0.70;0.57;;;;;;;;;;5059057;28;20024;-81
2023/04/15 21:48:53;;;;;;;0.20;0.20;;;;;;;;;;5077796;28;20062;-84
2023/04/15 21:51:19;;;;;;;0.93;0.35;;;;;;;;;;5084566;28;20064;-83
2023/04/15 21:53:45;;;;;;;2.67;0.50;;;;;;;;;;5076305;28;20020;-83
2023/04/15 21:56:10;;;;;;;2.05;0.73;;;;;;;;;;5063486;28;20483;-83
2023/04/15 21:58:36;;;;;;;2.83;1.13;;;;;;;;;;5068430;28;20037;-84
2023/04/15 22:01:03;;;;;;;0.70;0.70;;;;;;;;;;5082711;28;20074;-83
2023/04/15 22:03:32;;;;;;;2.08;1.02;;;;;;;;;;5084157;28;20460;-84
2023/04/15 22:06:00;;;;;;;2.27;0.67;;;;;;;;;;5065849;28;20063;-82
2023/04/15 22:08:26;;;;;;;0.98;0.70;;;;;;;;;;5084844;28;20028;-83
2023/04/15 22:10:51;;;;;;;3.30;1.30;;;;;;;;;;5068901;28;20020;-84
2023/04/15 22:13:17;;;;;;;1.08;0.82;;;;;;;;;;5082404;28;20036;-85
2023/04/15 22:15:42;;;;;;;0.82;0.82;;;;;;;;;;5081568;28;20443;-84
2023/04/15 22:18:08;;;;;;;0.65;0.63;;;;;;;;;;5080886;28;20508;-83
2023/04/15 22:20:33;;;;;;;1.02;0.85;;;;;;;;;;5079760;28;20449;-83
2023/04/15 22:22:59;;;;;;;0.88;0.85;;;;;;;;;;5081818;28;20113;-84
2023/04/15 22:25:24;;;;;;;0.85;0.70;;;;;;;;;;5067242;28;20028;-83
2023/04/15 22:27:50;;;;;;;2.22;1.15;;;;;;;;;;5065413;28;20042;-84
2023/04/15 22:30:16;;;;;;;1.08;0.65;;;;;;;;;;5067982;28;20028;-84
2023/04/15 22:32:41;;;;;;;3.50;1.05;;;;;;;;;;5083629;28;20039;-84
2023/04/15 22:35:07;;;;;;;1.75;0.38;;;;;;;;;;5089687;28;20485;-83
2023/04/15 22:37:33;;;;;;;1.90;1.05;;;;;;;;;;5068017;28;20074;-84
2023/04/15 22:39:58;;;;;;;0.63;0.52;;;;;;;;;;5067239;28;20032;-81
2023/04/15 22:42:24;;;;;;;5.63;2.10;;;;;;;;;;5067903;28;20099;-82
2023/04/15 22:44:50;;;;;;;3.80;1.15;;;;;;;;;;5064773;28;20069;-81
2023/04/15 22:47:16;;;;;;;2.45;1.55;;;;;;;;;;5068204;28;20443;-81
2023/04/15 22:49:43;;;;;;;2.05;1.30;;;;;;;;;;5087648;28;20028;-81
2023/04/15 22:52:09;;;;;;;2.28;0.75;;;;;;;;;;5084302;28;20028;-81
2023/04/15 22:54:35;;;;;;;0.98;0.82;;;;;;;;;;5084441;28;20031;-80
2023/04/15 22:57:00;;;;;;;1.20;1.10;;;;;;;;;;5065396;28;20468;-81
2023/04/15 22:59:26;;;;;;;0.85;0.75;;;;;;;;;;5084381;28;20025;-85
2023/04/15 23:01:52;;;;;;;4.78;1.27;;;;;;;;;;5087601;28;20023;-82
2023/04/15 23:04:17;;;;;;;0.95;0.75;;;;;;;;;;5061177;28;20077;-82
2023/04/15 23:06:42;;;;;;;1.50;0.75;;;;;;;;;;5064982;28;20070;-82
2023/04/15 23:09:08;;;;;;;0.82;0.70;;;;;;;;;;5061026;28;20029;-82
2023/04/15 23:11:33;;;;;;;1.70;0.63;;;;;;;;;;5084345;28;20024;-82
2023/04/15 23:13:59;;;;;;;0.73;0.68;;;;;;;;;;5084070;28;20105;-80
2023/04/15 23:16:24;;;;;;;0.63;0.55;;;;;;;;;;5078606;28;20033;-81
2023/04/15 23:18:50;;;;;;;4.85;0.47;;;;;;;;;;5085627;28;20038;-83
2023/04/15 23:21:15;;;;;;;0.82;0.63;;;;;;;;;;5079914;28;20472;-83
2023/04/15 23:23:41;;;;;;;5.90;0.98;;;;;;;;;;5088749;28;20078;-82
2023/04/15 23:26:06;;;;;;;1.02;0.90;;;;;;;;;;5083061;28;20032;-82
2023/04/15 23:28:32;;;;;;;1.60;0.50;;;;;;;;;;5065010;28;20472;-81
2023/04/15 23:30:57;;;;;;;2.60;1.15;;;;;;;;;;5083077;28;20028;-82
2023/04/15 23:33:23;;;;;;;0.73;0.73;;;;;;;;;;5083483;28;20098;-81
2023/04/15 23:35:49;;;;;;;0.57;0.40;;;;;;;;;;5083654;28;20103;-82
2023/04/15 23:38:14;;;;;;;0.70;0.70;;;;;;;;;;5066633;28;20028;-82
2023/04/15 23:40:39;;;;;;;0.95;0.90;;;;;;;;;;5081604;28;20024;-83
2023/04/15 23:43:05;;;;;;;0.68;0.38;;;;;;;;;;5060508;28;20028;-81
2023/04/15 23:45:30;;;;;;;0.90;0.60;;;;;;;;;;5081074;28;20020;-82
2023/04/15 23:47:56;;;;;;;0.60;0.55;;;;;;;;;;5081699;28;20046;-81
2023/04/15 23:50:21;;;;;;;0.45;0.45;;;;;;;;;;5083586;28;20042;-82
2023/04/15 23:52:47;;;;;;;0.73;0.60;;;;;;;;;;5083376;28;20725;-82
2023/04/15 23:55:12;;;;;;;0.65;0.57;;;;;;;;;;5070154;28;20077;-82
2023/04/15 23:57:39;;;;;;;1.38;0.95;;;;;;;;;;5085466;28;20024;-82
